createdAt,value
2024-02-12T00:00:16.595Z,41.800000
2024-02-12T00:05:16.842Z,41.800000
2024-02-12T00:10:16.503Z,42.000000
2024-02-12T00:15:16.637Z,42.400000
2024-02-12T00:20:16.681Z,42.600000
2024-02-12T00:25:16.659Z,42.900000
2024-02-12T00:30:16.603Z,42.900000
2024-02-12T00:35:16.702Z,42.900000
2024-02-12T00:40:16.598Z,42.900000
2024-02-12T00:45:16.931Z,42.700000
2024-02-12T00:50:16.842Z,42.700000
2024-02-12T00:55:16.687Z,42.600000
2024-02-12T01:00:16.729Z,42.600000
2024-02-12T01:05:16.825Z,42.500000
2024-02-12T01:10:16.663Z,42.300000
2024-02-12T01:15:16.693Z,41.900000
2024-02-12T01:20:16.859Z,41.900000
2024-02-12T01:25:16.734Z,41.900000
2024-02-12T01:30:16.714Z,42.000000
2024-02-12T01:35:16.760Z,41.800000
2024-02-12T01:40:16.818Z,41.700000
2024-02-12T01:45:17.164Z,41.400000
2024-02-12T01:50:17.362Z,41.200000
2024-02-12T01:55:16.792Z,41.100000
2024-02-12T02:00:16.977Z,41.000000
2024-02-12T02:05:16.952Z,40.800000
2024-02-12T02:10:16.941Z,40.600000
2024-02-12T02:15:16.865Z,40.400000
2024-02-12T02:20:16.905Z,40.300000
2024-02-12T02:25:16.834Z,40.300000
2024-02-12T02:30:18.313Z,40.400000
2024-02-12T02:35:17.097Z,40.500000
2024-02-12T02:40:16.928Z,40.500000
2024-02-12T02:45:17.338Z,40.500000
2024-02-12T02:50:16.937Z,40.300000
2024-02-12T02:55:16.884Z,40.300000
2024-02-12T03:00:16.921Z,40.300000
2024-02-12T03:05:16.999Z,40.200000
2024-02-12T03:10:16.961Z,40.000000
2024-02-12T03:15:17.190Z,39.700000
2024-02-12T03:20:17.008Z,39.400000
2024-02-12T03:25:17.485Z,39.300000
2024-02-12T03:30:17.261Z,39.100000
2024-02-12T03:35:17.098Z,38.900000
2024-02-12T03:40:16.966Z,38.700000
2024-02-12T03:45:17.185Z,38.600000
2024-02-12T03:50:17.104Z,38.700000
2024-02-12T03:55:17.088Z,38.600000
2024-02-12T04:00:17.052Z,38.500000
2024-02-12T04:05:17.506Z,38.300000
2024-02-12T04:10:17.196Z,38.200000
2024-02-12T04:15:17.340Z,38.100000
2024-02-12T04:20:17.165Z,38.000000
2024-02-12T04:25:17.154Z,38.100000
2024-02-12T04:30:17.188Z,38.000000
2024-02-12T04:35:17.172Z,37.900000
2024-02-12T04:40:17.148Z,38.000000
2024-02-12T04:45:17.271Z,38.200000
2024-02-12T04:50:17.158Z,38.200000
2024-02-12T04:55:17.226Z,38.200000
2024-02-12T05:00:16.196Z,38.200000
2024-02-12T05:05:16.235Z,38.200000
2024-02-12T05:10:16.375Z,38.200000
2024-02-12T05:15:16.276Z,38.300000
2024-02-12T05:20:17.797Z,38.400000
2024-02-12T05:25:16.198Z,38.300000
2024-02-12T05:30:16.351Z,38.200000
2024-02-12T05:35:16.295Z,38.300000
2024-02-12T05:40:16.283Z,38.400000
2024-02-12T05:45:16.340Z,38.200000
2024-02-12T05:50:16.328Z,38.100000
2024-02-12T05:55:16.340Z,38.000000
2024-02-12T06:00:16.372Z,38.100000
2024-02-12T06:05:16.494Z,37.900000
2024-02-12T06:10:16.474Z,37.800000
2024-02-12T06:15:16.337Z,37.800000
2024-02-12T06:20:16.419Z,37.700000
2024-02-12T06:25:16.521Z,37.700000
2024-02-12T06:30:16.404Z,37.700000
2024-02-12T06:35:16.555Z,37.700000
2024-02-12T06:40:16.462Z,37.700000
2024-02-12T06:45:16.668Z,37.700000
2024-02-12T06:50:16.455Z,37.700000
2024-02-12T06:55:16.369Z,37.700000
2024-02-12T07:00:16.423Z,37.700000
2024-02-12T07:05:16.609Z,37.800000
2024-02-12T07:10:16.654Z,37.800000
2024-02-12T07:15:16.525Z,37.800000
2024-02-12T07:20:16.563Z,37.900000
2024-02-12T07:25:16.894Z,37.900000
2024-02-12T07:30:16.519Z,37.700000
2024-02-12T07:35:16.724Z,37.600000
2024-02-12T07:40:16.523Z,37.500000
2024-02-12T07:45:16.551Z,37.400000
2024-02-12T07:50:16.601Z,37.100000
2024-02-12T07:55:16.584Z,37.000000
2024-02-12T08:00:17.006Z,36.900000
2024-02-12T08:05:17.191Z,36.800000
2024-02-12T08:10:16.541Z,36.600000
2024-02-12T08:15:16.636Z,36.700000
2024-02-12T08:20:16.732Z,36.700000
2024-02-12T08:25:22.183Z,36.600000
2024-02-12T08:30:16.629Z,36.400000
2024-02-12T08:35:16.797Z,36.100000
2024-02-12T08:40:16.671Z,35.900000
2024-02-12T08:45:16.787Z,35.600000
2024-02-12T08:50:17.162Z,35.300000
2024-02-12T08:55:16.662Z,35.000000
2024-02-12T09:00:16.733Z,34.700000
2024-02-12T09:05:17.123Z,34.400000
2024-02-12T09:10:18.181Z,34.100000
2024-02-12T09:15:16.621Z,33.900000
2024-02-12T09:20:16.978Z,33.700000
2024-02-12T09:25:16.845Z,33.500000
2024-02-12T09:30:16.654Z,33.300000
2024-02-12T09:35:16.891Z,33.100000
2024-02-12T09:40:17.523Z,32.800000
2024-02-12T09:45:16.777Z,32.700000
2024-02-12T09:50:17.148Z,32.600000
2024-02-12T09:55:16.876Z,32.700000
2024-02-12T10:00:16.751Z,32.800000
2024-02-12T10:05:17.101Z,32.900000
2024-02-12T10:10:16.939Z,33.000000
2024-02-12T10:15:16.810Z,33.000000
2024-02-12T10:20:16.868Z,33.100000
2024-02-12T10:25:17.007Z,33.500000
2024-02-12T10:30:17.032Z,33.700000
2024-02-12T10:35:17.108Z,34.100000
2024-02-12T10:40:17.055Z,34.500000
2024-02-12T10:45:17.059Z,34.600000
2024-02-12T10:50:16.951Z,34.800000
2024-02-12T10:55:16.896Z,34.800000
2024-02-12T11:00:17.091Z,34.700000
2024-02-12T11:05:17.022Z,34.700000
2024-02-12T11:10:17.059Z,34.600000
2024-02-12T11:15:17.042Z,34.600000
2024-02-12T11:20:17.237Z,34.600000
2024-02-12T11:25:21.959Z,34.300000
2024-02-12T11:30:17.222Z,34.000000
2024-02-12T11:35:17.036Z,33.700000
2024-02-12T11:40:16.974Z,33.500000
2024-02-12T11:45:17.023Z,33.200000
2024-02-12T11:50:17.067Z,32.900000
2024-02-12T11:55:17.043Z,32.700000
2024-02-12T12:00:17.043Z,32.400000
2024-02-12T12:05:17.207Z,32.300000
2024-02-12T12:10:17.050Z,32.200000
2024-02-12T12:15:17.235Z,32.200000
2024-02-12T12:20:17.383Z,32.400000
2024-02-12T12:25:17.184Z,32.700000
2024-02-12T12:30:17.168Z,33.000000
2024-02-12T12:35:17.291Z,33.000000
2024-02-12T12:40:17.295Z,33.200000
2024-02-12T12:45:17.356Z,33.400000
2024-02-12T12:50:17.407Z,33.600000
2024-02-12T12:55:17.283Z,33.800000
2024-02-12T13:00:17.181Z,34.100000
2024-02-12T13:05:17.383Z,34.400000
2024-02-12T13:10:17.438Z,34.600000
2024-02-12T13:15:17.429Z,34.800000
2024-02-12T13:20:17.287Z,35.000000
2024-02-12T13:25:17.276Z,35.200000
2024-02-12T13:30:17.385Z,35.300000
2024-02-12T13:35:17.502Z,35.600000
2024-02-12T13:40:17.448Z,35.800000
2024-02-12T13:45:17.443Z,36.200000
2024-02-12T13:50:17.543Z,36.600000
2024-02-12T13:55:17.592Z,36.900000
2024-02-12T14:00:35.330Z,37.300000
2024-02-12T14:05:17.549Z,37.500000
2024-02-12T14:10:17.353Z,37.600000
2024-02-12T14:15:59.641Z,37.700000
2024-02-12T14:20:17.396Z,37.900000
2024-02-12T14:25:17.371Z,38.000000
2024-02-12T14:30:17.363Z,38.200000
2024-02-12T14:35:17.581Z,38.200000
2024-02-12T14:40:17.389Z,38.300000
2024-02-12T14:45:17.398Z,38.400000
2024-02-12T14:50:17.638Z,38.300000
2024-02-12T14:55:19.108Z,38.200000
2024-02-12T15:00:17.446Z,38.400000
2024-02-12T15:05:17.697Z,38.600000
2024-02-12T15:10:17.573Z,38.700000
2024-02-12T15:15:15.439Z,38.900000
2024-02-12T15:20:15.520Z,39.100000
2024-02-12T15:25:17.259Z,39.500000
2024-02-12T15:30:15.601Z,39.700000
2024-02-12T15:35:16.282Z,39.900000
2024-02-12T15:40:15.698Z,40.000000
2024-02-12T15:45:15.549Z,40.100000
2024-02-12T15:50:15.810Z,40.300000
2024-02-12T15:55:15.717Z,40.400000
2024-02-12T16:00:15.917Z,40.200000
2024-02-12T16:05:17.065Z,40.000000
2024-02-12T16:10:15.654Z,39.800000
2024-02-12T16:15:15.755Z,39.800000
2024-02-12T16:20:15.717Z,39.900000
2024-02-12T16:25:15.769Z,40.200000
2024-02-12T16:30:15.703Z,40.300000
2024-02-12T16:35:17.247Z,40.600000
2024-02-12T16:40:15.738Z,40.300000
2024-02-12T16:45:15.755Z,40.400000
2024-02-12T16:50:16.167Z,40.300000
2024-02-12T16:55:15.728Z,40.300000
2024-02-12T17:00:15.645Z,40.500000
2024-02-12T17:05:15.993Z,40.700000
2024-02-12T17:10:16.408Z,41.300000
2024-02-12T17:15:15.872Z,42.000000
2024-02-12T17:20:15.751Z,42.400000
2024-02-12T17:25:15.767Z,42.700000
2024-02-12T17:30:15.860Z,42.900000
2024-02-12T17:35:15.844Z,43.100000
2024-02-12T17:40:15.757Z,43.600000
2024-02-12T17:45:16.014Z,44.300000
2024-02-12T17:50:15.837Z,45.100000
2024-02-12T17:55:15.789Z,45.300000
2024-02-12T18:00:15.948Z,45.400000
2024-02-12T18:05:16.016Z,45.500000
2024-02-12T18:10:15.853Z,45.800000
2024-02-12T18:15:15.853Z,46.100000
2024-02-12T18:20:15.949Z,46.000000
2024-02-12T18:25:16.235Z,45.700000
2024-02-12T18:30:15.979Z,45.200000
2024-02-12T18:35:15.950Z,44.900000
2024-02-12T18:40:16.046Z,44.600000
2024-02-12T18:45:16.042Z,44.500000
2024-02-12T18:50:16.305Z,44.700000
2024-02-12T18:55:17.734Z,44.800000
2024-02-12T19:00:16.011Z,44.600000
2024-02-12T19:05:16.158Z,44.400000
2024-02-12T19:10:15.908Z,44.300000
2024-02-12T19:15:16.283Z,44.300000
2024-02-12T19:20:16.616Z,43.900000
2024-02-12T19:25:16.018Z,43.600000
2024-02-12T19:30:16.065Z,43.500000
2024-02-12T19:35:16.256Z,43.000000
2024-02-12T19:40:17.298Z,42.800000
2024-02-12T19:45:16.326Z,42.500000
2024-02-12T19:50:16.051Z,42.500000
2024-02-12T19:55:16.527Z,42.300000
2024-02-12T20:00:16.099Z,42.100000
2024-02-12T20:05:16.270Z,41.000000
2024-02-12T20:10:16.100Z,40.900000
2024-02-12T20:15:16.107Z,41.100000
2024-02-12T20:20:16.253Z,41.200000
2024-02-12T20:25:16.147Z,40.800000
2024-02-12T20:30:16.180Z,40.800000
2024-02-12T20:35:16.697Z,41.100000
2024-02-12T20:40:16.689Z,41.300000
2024-02-12T20:45:16.192Z,41.300000
2024-02-12T20:50:16.269Z,41.400000
2024-02-12T20:55:16.521Z,41.300000
2024-02-12T21:00:16.629Z,41.200000
2024-02-12T21:05:16.339Z,40.800000
2024-02-12T21:10:16.239Z,40.500000
2024-02-12T21:15:16.290Z,40.300000
2024-02-12T21:20:16.290Z,40.200000
2024-02-12T21:25:16.278Z,40.000000
2024-02-12T21:30:16.190Z,39.800000
2024-02-12T21:35:16.280Z,39.700000
2024-02-12T21:40:17.067Z,39.700000
2024-02-12T21:45:16.356Z,39.600000
2024-02-12T21:50:16.347Z,39.400000
2024-02-12T21:55:16.426Z,39.400000
2024-02-12T22:00:16.316Z,39.200000
2024-02-12T22:05:16.538Z,39.200000
2024-02-12T22:10:16.336Z,39.100000
2024-02-12T22:15:16.303Z,39.000000
2024-02-12T22:20:16.482Z,38.900000
2024-02-12T22:25:16.368Z,38.800000
2024-02-12T22:30:16.440Z,38.600000
2024-02-12T22:35:16.987Z,38.500000
2024-02-12T22:40:16.430Z,38.500000
2024-02-12T22:45:16.444Z,38.400000
2024-02-12T22:50:16.773Z,38.300000
2024-02-12T22:55:16.426Z,38.300000
2024-02-12T23:00:16.640Z,38.300000
2024-02-12T23:05:16.498Z,38.200000
2024-02-12T23:10:16.532Z,38.100000
2024-02-12T23:15:16.526Z,38.000000
2024-02-12T23:20:16.564Z,37.800000
2024-02-12T23:25:17.167Z,37.700000
2024-02-12T23:30:16.493Z,37.700000
2024-02-12T23:35:16.607Z,37.600000
2024-02-12T23:40:16.604Z,37.400000
2024-02-12T23:45:16.696Z,37.200000
2024-02-12T23:50:16.763Z,37.100000
2024-02-12T23:55:16.650Z,37.000000
